• Join FlightAware (Why Join?)
  • Login
  • US Flag 
12:28AM EDT


 

Airport Tracker/Info


-or-


 

Live Flight TrackerFlight Track Log ✈ AAL961 ✈ 07-Jul-2014 ✈ KMIA - SBMN / PLL

Flight Track Log - Related Links

Times and Time Zones

All times are in EDT time to prevent confusion due to time zone crossing. See the AAL961 flight status page for this flight to view local times or setup timezone preferences in your user account.

Time Position Orientation Groundspeed Altitude Reporting Facility
EDT Latitude Longitude Course Direction KTS MPH feet Rate Location/Type
05:52PM 25.8019 -80.2583 104° East 164 189 1,200  Level Miami Center
05:52PM 25.8036 -80.2528 72° East 179 206 1,400 1,440 Climbing Miami Center
05:53PM 25.8081 -80.1964 85° East 231 266 2,700 1,320 Climbing Miami Center
05:53PM 25.8097 -80.1908 72° East 205 236 2,800 2,340 Climbing Miami Center
05:55PM 25.6810 -79.8977 104° East  Level FlightAware Approximate
05:56PM 25.6502 -79.7672 105° East  Level FlightAware Approximate
05:57PM 25.6301 -79.6353 104° East  Level FlightAware Approximate
05:58PM 25.6010 -79.5047 104° East  Level FlightAware Approximate
05:59PM 25.9391 -79.6211 82° East 373 429 17,200  Level FlightAware ADS-B (KEYW)
06:00PM 25.9433 -79.5345 92° East 382 440 19,000 2,280 Climbing FlightAware ADS-B (KEYW)
06:01PM 25.9398 -79.4422 92° East 395 455 20,700 2,100 Climbing FlightAware ADS-B (KEYW)
06:01PM 25.9373 -79.3692 92° East 404 465 21,900 1,980 Climbing FlightAware ADS-B (KEYW)
06:02PM 25.9320 -79.2559 93° East 414 476 23,700 1,980 Climbing FlightAware ADS-B (KEYW)
06:03PM 25.9270 -79.1602 93° East 419 482 25,200 1,740 Climbing FlightAware ADS-B (KEYW)
06:04PM 25.9217 -79.0609 93° East 429 494 26,400 1,500 Climbing FlightAware ADS-B (KEYW)
06:05PM 25.9164 -78.9607 93° East 442 509 27,500 1,440 Climbing FlightAware ADS-B (KEYW)
06:05PM 25.9112 -78.8633 93° East 449 517 28,500 1,380 Climbing FlightAware ADS-B (KEYW)
06:06PM 25.9027 -78.8136 106° East 452 520 29,000 1,320 Climbing FlightAware ADS-B (KEYW)
06:06PM 25.8796 -78.7600 122° Southeast 455 524 29,600 1,320 Climbing FlightAware ADS-B (KEYW)
06:07PM 25.8165 -78.6797 132° Southeast 459 528 30,600 1,380 Climbing FlightAware ADS-B (KEYW)
06:08PM 25.7510 -78.6019 133° Southeast 461 531 31,700 1,500 Climbing FlightAware ADS-B (KEYW)
06:08PM 25.7074 -78.5501 132° Southeast 459 528 32,500 1,440 Climbing FlightAware ADS-B (KEYW)
06:09PM 25.6411 -78.4718 133° Southeast 458 527 33,500 1,380 Climbing FlightAware ADS-B (KEYW)
06:10PM 25.5755 -78.3948 133° Southeast 458 527 34,600 1,260 Climbing FlightAware ADS-B (KEYW)
06:10PM 25.5072 -78.3211 137° Southeast 456 525 35,500 1,080 Climbing FlightAware ADS-B (KEYW)
06:11PM 25.4386 -78.2523 137° Southeast 454 522 36,300 1,080 Climbing FlightAware ADS-B (KEYW)
06:12PM 25.4191 -78.2329 137° Southeast 453 521 36,800 1,020 Climbing FlightAware ADS-B (KEYW)
06:13PM 25.2472 -78.0612 137° Southeast 448 516 38,400 900 Climbing FlightAware ADS-B (KEYW)
06:14PM 25.1769 -77.9917 137° Southeast 448 516 39,000 300 Climbing Miami Center
06:15PM 25.0853 -77.9000 138° Southeast 447 514 39,000  Level Miami Center
06:16PM 24.9928 -77.8092 138° Southeast 447 514 39,000  Level Miami Center
06:17PM 24.8903 -77.7078 138° Southeast 448 516 39,000  Level Miami Center
06:18PM 24.7969 -77.6150 138° Southeast 452 520 39,000  Level Miami Center
06:19PM 24.7042 -77.5219 138° Southeast 453 521 39,000  Level Miami Center
06:20PM 24.6008 -77.4200 138° Southeast 454 522 39,000  Level Miami Center
06:21PM 24.5078 -77.3275 138° Southeast 452 520 39,000  Level Miami Center
06:22PM 24.4136 -77.2347 138° Southeast 454 522 39,000  Level Miami Center
06:23PM 24.3211 -77.1433 138° Southeast 452 520 39,000  Level Miami Center
06:24PM 24.2194 -77.0444 138° Southeast 447 514 39,000  Level Miami Center
06:25PM 24.1267 -76.9539 138° Southeast 447 514 39,000  Level Miami Center
06:26PM 24.0442 -76.8731 138° Southeast 446 513 39,000  Level Miami Center
06:27PM 23.9319 -76.7647 139° Southeast 447 514 39,000  Level Miami Center
06:28PM 23.8375 -76.6739 139° Southeast 451 519 39,000  Level Miami Center
06:29PM 23.7428 -76.5828 139° Southeast 453 521 39,000  Level Miami Center
06:30PM 23.6486 -76.4911 138° Southeast 453 521 39,000  Level Miami Center
06:31PM 23.5539 -76.3994 138° Southeast 453 521 39,000  Level Miami Center
06:32PM 23.4586 -76.3072 138° Southeast 455 524 39,000  Level Miami Center
06:33PM 23.3628 -76.2158 139° Southeast 459 528 39,000  Level Miami Center
06:34PM 23.2483 -76.1050 138° Southeast 460 529 39,000  Level Miami Center
06:36PM 23.1525 -76.0131 139° Southeast 461 531 39,000  Level Miami Center
06:37PM 23.0556 -75.9214 139° Southeast 462 532 39,000  Level Miami Center
06:38PM 22.9606 -75.8286 138° Southeast 462 532 39,000  Level Miami Center
06:39PM 22.8653 -75.7367 138° Southeast 462 532 39,000  Level Miami Center
06:40PM 22.7692 -75.6467 139° Southeast 459 528 39,000  Level Miami Center
06:41PM 22.6750 -75.5556 138° Southeast 457 526 39,000  Level Miami Center
06:42PM 22.5572 -75.4464 139° Southeast 460 529 39,000  Level Miami Center
06:43PM 22.4606 -75.3536 138° Southeast 462 532 39,000  Level Miami Center
06:44PM 22.3628 -75.2608 139° Southeast 464 534 39,000  Level Miami Center
06:45PM 22.2647 -75.1697 139° Southeast 464 534 39,000  Level Miami Center
06:46PM 22.1669 -75.0781 139° Southeast 462 532 39,000  Level Miami Center
06:47PM 22.0686 -74.9872 139° Southeast 462 532 39,000  Level Miami Center
06:48PM 21.9711 -74.8967 139° Southeast 462 532 39,000  Level Miami Center
06:49PM 21.8747 -74.8053 139° Southeast 462 532 39,000  Level Miami Center
06:50PM 21.7781 -74.7156 139° Southeast 462 532 39,000  Level Miami Center
06:51PM 21.6811 -74.6256 139° Southeast 462 532 39,000  Level Miami Center
06:52PM 21.5622 -74.5158 139° Southeast 462 532 39,000 -60 Level Miami Center
06:53PM 21.4656 -74.4258 139° Southeast 462 532 38,900  Descending Miami Center
06:54PM 21.3664 -74.3339 139° Southeast 461 531 39,000  Climbing Miami Center
06:55PM 21.2714 -74.2461 139° Southeast 460 529 39,000  Level Miami Center
06:56PM 21.1728 -74.1544 139° Southeast 463 533 39,000  Level Miami Center
06:57PM 21.0750 -74.0644 139° Southeast 463 533 39,000 -60 Level Miami Center
06:58PM 20.9764 -73.9744 140° Southeast 464 534 38,900 -60 Descending Miami Center
06:59PM 20.8761 -73.8831 140° Southeast 465 535 38,900  Level Miami Center
07:00PM 20.7797 -73.7939 139° Southeast 465 535 39,000  Climbing Miami Center
07:01PM 20.6839 -73.7056 139° Southeast 463 533 39,000 -60 Level Miami Center
07:02PM 20.5647 -73.5978 140° Southeast 463 533 38,900  Descending Miami Center
07:03PM 20.4642 -73.5072 140° Southeast 464 534 39,000  Climbing Miami Center
07:04PM 20.3619 -73.4164 140° Southeast 470 541 39,000  Level Miami Center
07:05PM 20.2703 -73.3294 138° Southeast 456 525 39,000  Level Miami Center
07:06PM 20.1692 -73.2403 140° Southeast 467 537 39,000  Level Miami Center
07:29PM 17.8137 -71.3266 143° Southeast 450 518 39,000  Level FlightAware ADS-B (MTJA / JAK)
07:30PM 17.8512 -71.4818 151° Southeast  Level FlightAware Approximate
07:30PM 17.7724 -71.2940 143° Southeast 450 518 39,000  Level FlightAware ADS-B (MTJA / JAK)
07:30PM 17.7215 -71.2539 142° Southeast 449 517 39,000  Level FlightAware ADS-B (MTJA / JAK)
07:31PM 17.6707 -71.2140 142° Southeast 449 517 39,000  Level FlightAware ADS-B (MTJA / JAK)
07:32PM 17.6120 -71.1677 143° Southeast 450 518 39,000  Level FlightAware ADS-B (MTJA / JAK)
07:32PM 17.5589 -71.1260 143° Southeast 450 518 39,000  Level FlightAware ADS-B (MTJA / JAK)
07:32PM 17.5191 -71.0947 143° Southeast 450 518 39,000  Level FlightAware ADS-B (MTJA / JAK)
07:33PM 17.4600 -71.0484 143° Southeast 450 518 39,000  Level FlightAware ADS-B (MTJA / JAK)
07:33PM 17.4158 -71.0137 143° Southeast 450 518 39,000  Level FlightAware ADS-B (MTJA / JAK)
07:35PM 17.3263 -70.9437 143° Southeast 450 518 39,000  Level FlightAware ADS-B (MTJA / JAK)
07:47PM 16.0707 -69.9691 143° Southeast 445 512 39,000  Level FlightAware ADS-B (TNCC / CUR)
07:48PM 16.0013 -69.9157 143° Southeast 445 512 39,000  Level FlightAware ADS-B (TNCC / CUR)
07:49PM 15.8998 -69.8410 145° Southeast 451 519 39,000  Level FlightAware ADS-B (TNCC / CUR)
07:49PM 15.8320 -69.7914 145° Southeast 451 519 39,000  Level FlightAware ADS-B (TNCC / CUR)
07:50PM 15.7629 -69.7409 145° Southeast 450 518 39,000  Level FlightAware ADS-B (TNCC / CUR)
07:51PM 15.6971 -69.6927 145° Southeast 450 518 39,000  Level FlightAware ADS-B (TNCC / CUR)
07:51PM 15.6263 -69.6409 145° Southeast 450 518 39,000  Level FlightAware ADS-B (TNCC / CUR)
07:52PM 15.5593 -69.5919 145° Southeast 450 518 39,000  Level FlightAware ADS-B (TNCC / CUR)
07:53PM 15.4899 -69.5411 145° Southeast 450 518 39,000  Level FlightAware ADS-B (TNCC / CUR)
07:53PM 15.4226 -69.4919 145° Southeast 451 519 39,000  Level FlightAware ADS-B (TNCC / CUR)
07:54PM 15.3549 -69.4424 145° Southeast 452 520 39,000  Level FlightAware ADS-B (TNCC / CUR)
07:55PM 15.2853 -69.3917 145° Southeast 453 521 39,000  Level FlightAware ADS-B (TNCC / CUR)
07:55PM 15.2180 -69.3427 145° Southeast 453 521 39,000  Level FlightAware ADS-B (TNCC / CUR)
07:56PM 15.1542 -69.2963 145° Southeast 454 522 39,000  Level FlightAware ADS-B (TNCC / CUR)
07:57PM 15.0799 -69.2423 145° Southeast 455 524 39,000  Level FlightAware ADS-B (TNCC / CUR)
07:57PM 15.0103 -69.1918 145° Southeast 455 524 39,000  Level FlightAware ADS-B (TNCC / CUR)
07:58PM 14.9420 -69.1423 145° Southeast 455 524 39,000  Level FlightAware ADS-B (TNCC / CUR)
07:59PM 14.8720 -69.0916 145° Southeast 454 522 39,000  Level FlightAware ADS-B (TNCC / CUR)
07:59PM 14.8036 -69.0420 145° Southeast 451 519 39,000  Level FlightAware ADS-B (TNCC / CUR)
08:00PM 14.7360 -68.9933 145° Southeast 449 517 39,000  Level FlightAware ADS-B (TNCC / CUR)
08:01PM 14.6678 -68.9440 144° Southeast 441 507 39,000  Level FlightAware ADS-B (TNCC / CUR)
08:01PM 14.6000 -68.8950 144° Southeast 440 506 39,000  Level FlightAware ADS-B (TNCC / CUR)
08:02PM 14.5319 -68.8457 144° Southeast 439 505 39,000  Level FlightAware ADS-B (TNCC / CUR)
08:03PM 14.4647 -68.7974 144° Southeast 437 503 39,000  Level FlightAware ADS-B (TNCC / CUR)
08:03PM 14.3979 -68.7491 144° Southeast 437 503 39,000  Level FlightAware ADS-B (TNCC / CUR)
08:04PM 14.3306 -68.7005 144° Southeast 437 503 39,000  Level FlightAware ADS-B (TNCC / CUR)
08:05PM 14.2616 -68.6507 144° Southeast 438 504 39,000  Level FlightAware ADS-B (TNCC / CUR)
08:05PM 14.1963 -68.6036 144° Southeast 439 505 39,000  Level FlightAware ADS-B (TNCC / CUR)
08:06PM 14.1266 -68.5534 144° Southeast 440 506 39,000  Level FlightAware ADS-B (TNCC / CUR)
08:07PM 14.0577 -68.5037 144° Southeast 440 506 39,000  Level FlightAware ADS-B (TNCC / CUR)
08:07PM 13.9907 -68.4554 144° Southeast 441 507 39,000  Level FlightAware ADS-B (TNCC / CUR)
08:08PM 13.9224 -68.4064 145° Southeast 446 513 39,000  Level FlightAware ADS-B (TNCC / CUR)
08:09PM 13.8549 -68.3589 145° Southeast 446 513 39,000  Level FlightAware ADS-B (TNCC / CUR)
08:09PM 13.7854 -68.3094 144° Southeast 439 505 39,000  Level FlightAware ADS-B (TNCC / CUR)
08:10PM 13.7188 -68.2615 144° Southeast 439 505 39,000  Level FlightAware ADS-B (TNCC / CUR)
08:11PM 13.6501 -68.2123 145° Southeast 439 505 39,000  Level FlightAware ADS-B (TNCC / CUR)
08:11PM 13.5828 -68.1642 145° Southeast 439 505 39,000  Level FlightAware ADS-B (TNCC / CUR)
08:12PM 13.5149 -68.1156 144° Southeast 439 505 39,000  Level FlightAware ADS-B (TNCC / CUR)
08:13PM 13.4476 -68.0674 144° Southeast 440 506 39,000  Level FlightAware ADS-B (TNCC / CUR)
08:13PM 13.3807 -68.0195 145° Southeast 448 516 39,000  Level FlightAware ADS-B (TNCC / CUR)
08:14PM 13.3128 -67.9710 145° Southeast 448 516 39,000  Level FlightAware ADS-B (TNCC / CUR)
08:15PM 13.2093 -67.8973 145° Southeast 449 517 39,000  Level FlightAware ADS-B (TNCC / CUR)
08:16PM 13.1398 -67.8478 145° Southeast 450 518 39,000  Level FlightAware ADS-B (TNCC / CUR)
08:16PM 13.0716 -67.7993 145° Southeast 451 519 39,000  Level FlightAware ADS-B (TNCC / CUR)
08:17PM 13.0039 -67.7514 145° Southeast 451 519 39,000  Level FlightAware ADS-B (TNCC / CUR)
08:18PM 12.9342 -67.7020 145° Southeast 451 519 39,000  Level FlightAware ADS-B (TNCC / CUR)
08:18PM 12.8661 -67.6537 145° Southeast 451 519 39,000  Level FlightAware ADS-B (TNCC / CUR)
08:19PM 12.7969 -67.6049 145° Southeast 451 519 39,000  Level FlightAware ADS-B (TNCC / CUR)
08:20PM 12.7279 -67.5564 146° Southeast 452 520 39,000  Level FlightAware ADS-B (TNCC / CUR)
08:20PM 12.6582 -67.5076 145° Southeast 453 521 39,000  Level FlightAware ADS-B (TNCC / CUR)
08:21PM 12.5893 -67.4590 145° Southeast 454 522 39,000  Level FlightAware ADS-B (TNCC / CUR)
08:22PM 12.5198 -67.4100 145° Southeast 455 524 39,000  Level FlightAware ADS-B (TNCC / CUR)
08:22PM 12.4503 -67.3611 145° Southeast 449 517 39,000  Level FlightAware ADS-B (TNCC / CUR)
08:23PM 12.3821 -67.3134 145° Southeast 449 517 39,000  Level FlightAware ADS-B (TNCC / CUR)
08:24PM 12.3112 -67.2635 145° Southeast 449 517 39,000  Level FlightAware ADS-B (TNCC / CUR)
08:24PM 12.2426 -67.2154 145° Southeast 454 522 39,000  Level FlightAware ADS-B (TNCC / CUR)
08:25PM 12.1726 -67.1664 145° Southeast 453 521 39,000  Level FlightAware ADS-B (TNCC / CUR)
08:26PM 12.1035 -67.1182 145° Southeast 453 521 39,000  Level FlightAware ADS-B (TNCC / CUR)
08:26PM 12.0333 -67.0691 146° Southeast 452 520 39,000  Level FlightAware ADS-B (TNCC / CUR)
08:27PM 11.9651 -67.0215 146° Southeast 451 519 39,000  Level FlightAware ADS-B (TNCC / CUR)
08:28PM 11.8960 -66.9730 145° Southeast 451 519 39,000  Level FlightAware ADS-B (TNCC / CUR)
08:28PM 11.8281 -66.9255 145° Southeast 449 517 39,000  Level FlightAware ADS-B (TNCC / CUR)
08:29PM 11.7580 -66.8763 145° Southeast 447 514 39,000  Level FlightAware ADS-B (TNCC / CUR)
08:30PM 11.6899 -66.8287 145° Southeast 438 504 39,000  Level FlightAware ADS-B (TNCC / CUR)
08:30PM 11.6231 -66.7821 145° Southeast 436 502 39,000  Level FlightAware ADS-B (TNCC / CUR)
08:31PM 11.5538 -66.7337 145° Southeast 435 501 39,000  Level FlightAware ADS-B (TNCC / CUR)
08:32PM 11.4868 -66.6864 145° Southeast 436 502 39,000  Level FlightAware ADS-B (TNCC / CUR)
08:32PM 11.4180 -66.6381 145° Southeast 438 504 39,000  Level FlightAware ADS-B (TNCC / CUR)
08:33PM 11.3514 -66.5913 145° Southeast 448 516 39,000  Level FlightAware ADS-B (TNCC / CUR)
08:34PM 11.2826 -66.5430 145° Southeast 449 517 39,000  Level FlightAware ADS-B (TNCC / CUR)
08:34PM 11.2145 -66.4953 145° Southeast 448 516 39,000  Level FlightAware ADS-B (TNCC / CUR)
08:36PM 11.0137 -66.3542 145° Southeast 440 506 39,000  Level FlightAware ADS-B (TNCC / CUR)
08:37PM 10.9023 -66.2759 145° Southeast 439 505 39,000  Level FlightAware ADS-B (TNCC / CUR)
08:38PM 10.8414 -66.2331 145° Southeast 435 501 39,000  Level FlightAware ADS-B (TNCC / CUR)
08:39PM 10.7723 -66.1852 145° Southeast 434 499 39,000  Level FlightAware ADS-B (TNCC / CUR)
08:41PM 10.5737 -66.0508 148° Southeast 443 510 39,000  Level FlightAware ADS-B (TNCC / CUR)
08:43PM 10.3190 -65.9048 151° Southeast 444 511 39,000  Level FlightAware ADS-B (TNCC / CUR)
08:44PM 10.2471 -65.8639 151° Southeast 446 513 39,000 60 Level FlightAware ADS-B (TNCC / CUR)
09:10PM 13.5307 -65.3906 150° Southeast 447 514 41,000 60 Climbing FlightAware ADS-B (SVPR / CGU)
09:11PM 13.3233 -65.3113 154° Southeast 447 514 41,000  Level FlightAware ADS-B (SVPR / CGU)
09:12PM 13.3011 -65.3018 159° South 447 514 41,000  Level FlightAware ADS-B (SVPR / CGU)
09:15PM 13.0547 -65.2193 162° South  Level Estimated
09:16PM 12.9383 -65.1804 162° South  Level Estimated
09:17PM 12.8219 -65.1416 162° South  Level Estimated
09:18PM 12.7055 -65.1028 162° South  Level Estimated
09:19PM 12.5890 -65.0640 162° South  Level Estimated
09:20PM 12.4726 -65.0252 162° South  Level Estimated
09:21PM 12.3562 -64.9865 162° South  Level Estimated
09:22PM 12.2397 -64.9478 162° South  Level Estimated
09:23PM 12.1233 -64.9092 162° South  Level Estimated
09:24PM 12.0068 -64.8705 162° South  Level Estimated
09:25PM 11.8904 -64.8320 162° South  Level Estimated
09:26PM 11.7739 -64.7934 162° South  Level Estimated
09:27PM 11.6574 -64.7549 162° South  Level Estimated
09:28PM 11.5410 -64.7164 162° South  Level Estimated
09:29PM 11.4245 -64.6779 162° South  Level Estimated
09:30PM 11.3080 -64.6395 162° South  Level Estimated
09:31PM 11.1915 -64.6011 162° South  Level Estimated
09:32PM 11.0750 -64.5628 162° South  Level Estimated
09:33PM 10.9585 -64.5245 162° South  Level Estimated
09:34PM 10.8420 -64.4862 162° South  Level Estimated
09:35PM 10.7255 -64.4479 162° South  Level Estimated
09:36PM 10.6090 -64.4096 162° South  Level Estimated
09:37PM 10.4925 -64.3714 162° South  Level Estimated
09:38PM 10.3760 -64.3333 162° South  Level Estimated
09:39PM 10.2594 -64.2951 162° South  Level Estimated
09:40PM 10.1429 -64.2570 162° South  Level Estimated
09:41PM 10.0264 -64.2189 162° South  Level Estimated
09:42PM 9.9098 -64.1808 162° South  Level Estimated
09:43PM 9.7933 -64.1428 162° South  Level Estimated
09:44PM 9.6768 -64.1047 162° South  Level Estimated
09:45PM 9.5602 -64.0667 162° South  Level Estimated
09:46PM 9.4437 -64.0288 162° South  Level Estimated
09:47PM 9.3271 -63.9908 162° South  Level Estimated
09:48PM 9.2105 -63.9529 162° South  Level Estimated
09:49PM 9.0940 -63.9151 162° South  Level Estimated
09:50PM 8.9774 -63.8772 162° South  Level Estimated
09:51PM 8.8608 -63.8393 162° South  Level Estimated
09:52PM 8.7442 -63.8015 162° South  Level Estimated
09:53PM 8.6277 -63.7637 162° South  Level Estimated
09:54PM 8.5111 -63.7260 162° South  Level Estimated
09:55PM 8.3945 -63.6882 162° South  Level Estimated
09:56PM 8.2779 -63.6505 162° South  Level Estimated
09:57PM 8.1613 -63.6128 162° South  Level Estimated
09:58PM 8.0447 -63.5751 162° South  Level Estimated
09:59PM 7.9281 -63.5375 162° South  Level Estimated
10:00PM 7.8115 -63.4998 162° South  Level Estimated
10:01PM 7.6949 -63.4622 162° South  Level Estimated
10:02PM 7.5783 -63.4246 162° South  Level Estimated
10:03PM 7.4616 -63.3871 162° South  Level Estimated
10:04PM 7.3450 -63.3495 162° South  Level Estimated
10:05PM 7.2284 -63.3120 162° South  Level Estimated
10:06PM 7.1118 -63.2744 162° South  Level Estimated
10:07PM 6.9951 -63.2369 162° South  Level Estimated
10:08PM 6.8785 -63.1995 162° South  Level Estimated
10:09PM 6.7619 -63.1620 162° South  Level Estimated
10:10PM 6.6452 -63.1246 162° South  Level Estimated
10:11PM 6.5286 -63.0872 162° South  Level Estimated
10:12PM 6.4120 -63.0498 162° South  Level Estimated
10:13PM 6.2953 -63.0124 162° South  Level Estimated
10:14PM 6.1787 -62.9750 162° South  Level Estimated
10:15PM 6.0620 -62.9376 162° South  Level Estimated
10:16PM 5.9454 -62.9003 162° South  Level Estimated
10:17PM 5.8287 -62.8630 162° South  Level Estimated
10:18PM 5.7120 -62.8257 162° South  Level Estimated
10:19PM 5.5954 -62.7884 162° South  Level Estimated
10:20PM 5.4787 -62.7511 162° South  Level Estimated
10:21PM 5.3621 -62.7138 162° South  Level Estimated
10:22PM 5.2454 -62.6766 162° South  Level Estimated
10:23PM 5.1287 -62.6394 162° South  Level Estimated
10:24PM 5.0120 -62.6021 162° South  Level Estimated
10:25PM 4.8954 -62.5649 162° South  Level Estimated
10:26PM 4.7787 -62.5277 162° South  Level Estimated
10:27PM 4.6620 -62.4906 162° South  Level Estimated
10:28PM 4.5453 -62.4534 162° South  Level Estimated
10:29PM 4.4270 -62.4157 162° South  Level Estimated
10:30PM 4.3087 -62.3781 162° South  Level Estimated
10:31PM 4.1904 -62.3404 162° South  Level Estimated
10:32PM 4.0721 -62.3028 162° South  Level Estimated
10:33PM 3.9538 -62.2651 162° South  Level Estimated
10:34PM 3.8355 -62.2275 162° South  Level Estimated
10:35PM 3.7172 -62.1899 162° South  Level Estimated
10:36PM 3.5989 -62.1523 162° South  Level Estimated
10:37PM 3.4806 -62.1148 162° South  Level Estimated
10:38PM 3.3623 -62.0772 162° South  Level Estimated
10:39PM 3.2439 -62.0396 162° South  Level Estimated
10:40PM 3.1256 -62.0021 162° South  Level Estimated
10:41PM 3.0073 -61.9645 162° South  Level Estimated
10:42PM 2.8890 -61.9270 162° South  Level Estimated
10:43PM 2.7707 -61.8894 162° South  Level Estimated
10:44PM 2.6524 -61.8519 162° South  Level Estimated
10:45PM 2.5340 -61.8144 162° South  Level Estimated
10:46PM 2.4157 -61.7769 162° South  Level Estimated
10:47PM 2.2974 -61.7394 162° South  Level Estimated
10:48PM 2.1791 -61.7019 162° South  Level Estimated
10:49PM 2.0607 -61.6644 162° South  Level Estimated
10:50PM 1.9424 -61.6269 162° South  Level Estimated
10:51PM 1.8241 -61.5894 162° South  Level Estimated
10:52PM 1.7058 -61.5519 162° South  Level Estimated
10:53PM 1.5874 -61.5145 162° South  Level Estimated
10:54PM 1.4691 -61.4770 162° South  Level Estimated